createdAt,value
2022-10-06T00:01:11.043Z,100295.63
2022-10-06T00:03:43.178Z,100300.34
2022-10-06T00:06:16.340Z,100297.15
2022-10-06T00:08:45.435Z,100293.95
2022-10-06T00:11:14.472Z,100294.86
2022-10-06T00:13:41.478Z,100292.10
2022-10-06T00:16:17.726Z,100288.29
2022-10-06T00:18:44.775Z,100286.05
2022-10-06T00:21:11.470Z,100285.36
2022-10-06T00:23:37.976Z,100281.70
2022-10-06T00:26:04.647Z,100287.20
2022-10-06T00:28:31.655Z,100287.52
2022-10-06T00:31:02.364Z,100284.87
2022-10-06T00:33:28.940Z,100284.18
2022-10-06T00:35:57.520Z,100286.86
2022-10-06T00:38:25.297Z,100286.34
2022-10-06T00:40:51.868Z,100288.79
2022-10-06T00:43:46.607Z,100290.98
2022-10-06T00:46:23.746Z,100287.05
2022-10-06T00:49:27.780Z,100290.44
2022-10-06T00:51:59.545Z,100288.21
2022-10-06T00:54:27.202Z,100286.84
2022-10-06T00:56:58.682Z,100286.65
2022-10-06T00:59:25.286Z,100287.56
2022-10-06T01:02:11.588Z,100286.58
2022-10-06T01:04:51.958Z,100290.66
2022-10-06T01:07:20.834Z,100287.98
2022-10-06T01:09:48.438Z,100283.73
2022-10-06T01:12:16.118Z,100291.42
2022-10-06T01:14:42.853Z,100294.91
2022-10-06T01:17:16.427Z,100290.27
2022-10-06T01:20:08.436Z,100293.27
2022-10-06T01:22:38.890Z,100298.10
2022-10-06T01:25:08.158Z,100294.27
2022-10-06T01:27:37.061Z,100292.98
2022-10-06T01:30:10.648Z,100293.67
2022-10-06T01:32:39.089Z,100296.14
2022-10-06T01:35:09.818Z,100296.95
2022-10-06T01:37:36.848Z,100297.08
2022-10-06T01:40:10.491Z,100297.71
2022-10-06T01:42:44.753Z,100299.02
2022-10-06T01:45:11.337Z,100295.26
2022-10-06T01:47:37.797Z,100297.23
2022-10-06T01:50:06.084Z,100297.55
2022-10-06T01:52:32.836Z,100298.89
2022-10-06T01:54:59.345Z,100299.19
2022-10-06T01:57:26.107Z,100303.55
2022-10-06T01:59:54.972Z,100301.45
2022-10-06T02:02:23.458Z,100298.13
2022-10-06T02:05:03.038Z,100298.86
2022-10-06T02:07:29.757Z,100296.06
2022-10-06T02:09:56.210Z,100298.65
2022-10-06T02:12:23.537Z,100296.28
2022-10-06T02:14:54.826Z,100301.23
2022-10-06T02:17:22.483Z,100301.40
2022-10-06T02:19:50.925Z,100301.09
2022-10-06T02:22:17.549Z,100304.36
2022-10-06T02:24:44.009Z,100303.08
2022-10-06T02:27:10.657Z,100302.09
2022-10-06T02:29:37.232Z,100302.89
2022-10-06T02:32:05.332Z,100307.13
2022-10-06T02:34:32.623Z,100305.23
2022-10-06T02:36:59.313Z,100303.73
2022-10-06T02:39:25.805Z,100311.46
2022-10-06T02:41:52.324Z,100312.10
2022-10-06T02:44:19.031Z,100312.36
2022-10-06T02:46:47.667Z,100311.85
2022-10-06T02:49:14.268Z,100307.41
2022-10-06T02:51:40.745Z,100316.38
2022-10-06T02:54:07.315Z,100319.55
2022-10-06T02:56:34.458Z,100318.27
2022-10-06T02:59:00.937Z,100319.36
2022-10-06T03:01:30.251Z,100321.17
2022-10-06T03:04:08.327Z,100322.25
2022-10-06T03:06:34.814Z,100327.09
2022-10-06T03:09:09.128Z,100333.77
2022-10-06T03:11:39.912Z,100329.07
2022-10-06T03:14:07.149Z,100327.57
2022-10-06T03:16:35.379Z,100327.31
2022-10-06T03:19:03.018Z,100332.77
2022-10-06T03:21:32.583Z,100331.52
2022-10-06T03:24:00.114Z,100330.52
2022-10-06T03:26:30.875Z,100328.27
2022-10-06T03:29:05.910Z,100326.23
2022-10-06T03:31:35.623Z,100331.16
2022-10-06T03:34:03.138Z,100338.45
2022-10-06T03:36:32.885Z,100337.20
2022-10-06T03:39:06.030Z,100341.43
2022-10-06T03:41:35.875Z,100349.05
2022-10-06T03:44:09.399Z,100353.34
2022-10-06T03:46:44.443Z,100356.58
2022-10-06T03:49:17.290Z,100355.26
2022-10-06T03:51:50.439Z,100360.59
2022-10-06T03:54:22.056Z,100356.45
2022-10-06T03:56:49.710Z,100364.72
2022-10-06T03:59:18.839Z,100366.08
2022-10-06T04:01:55.517Z,100369.38
2022-10-06T04:04:31.117Z,100366.18
2022-10-06T04:07:04.618Z,100366.20
2022-10-06T04:09:31.363Z,100367.16
2022-10-06T04:11:57.989Z,100371.90
2022-10-06T04:14:25.010Z,100375.61
2022-10-06T04:16:51.785Z,100378.31
2022-10-06T04:19:22.663Z,100379.55
2022-10-06T04:21:52.251Z,100381.48
2022-10-06T04:24:23.470Z,100381.55
2022-10-06T04:26:51.853Z,100384.05
2022-10-06T04:29:20.035Z,100387.17
2022-10-06T04:31:55.337Z,100388.06
2022-10-06T04:34:27.624Z,100391.29
2022-10-06T04:36:54.366Z,100395.25
2022-10-06T04:39:20.903Z,100397.89
2022-10-06T04:41:51.353Z,100394.02
2022-10-06T04:44:22.628Z,100395.05
2022-10-06T04:46:49.779Z,100396.29
2022-10-06T04:49:20.213Z,100394.28
2022-10-06T04:51:48.883Z,100400.98
2022-10-06T04:54:15.843Z,100400.11
2022-10-06T04:56:42.436Z,100403.51
2022-10-06T04:59:09.631Z,100402.06
2022-10-06T05:01:38.748Z,100400.13
2022-10-06T05:04:09.339Z,100405.48
2022-10-06T05:06:39.179Z,100410.73
2022-10-06T05:09:08.972Z,100414.62
2022-10-06T05:11:37.672Z,100419.33
2022-10-06T05:14:06.993Z,100421.56
2022-10-06T05:16:39.759Z,100426.11
2022-10-06T05:19:07.581Z,100427.27
2022-10-06T05:21:35.630Z,100427.64
2022-10-06T05:24:02.959Z,100430.15
2022-10-06T05:26:31.693Z,100436.78
2022-10-06T05:28:59.457Z,100439.41
2022-10-06T05:31:28.761Z,100442.13
2022-10-06T05:33:59.256Z,100442.70
2022-10-06T05:36:29.453Z,100442.41
2022-10-06T05:38:58.216Z,100445.96
2022-10-06T05:41:30.924Z,100453.00
2022-10-06T05:44:00.223Z,100454.23
2022-10-06T05:46:34.473Z,100456.83
2022-10-06T05:49:03.622Z,100459.30
2022-10-06T05:51:33.549Z,100465.56
2022-10-06T05:54:04.067Z,100466.49
2022-10-06T05:56:38.089Z,100471.55
2022-10-06T05:59:05.481Z,100474.25
2022-10-06T06:01:41.347Z,100475.34
2022-10-06T06:04:13.478Z,100479.92
2022-10-06T06:06:46.108Z,100484.70
2022-10-06T06:09:21.064Z,100493.33
2022-10-06T06:11:52.374Z,100497.23
2022-10-06T06:14:43.172Z,100498.45
2022-10-06T06:17:12.381Z,100499.33
2022-10-06T06:19:40.117Z,100500.91
2022-10-06T06:22:07.548Z,100503.52
2022-10-06T06:24:36.928Z,100508.77
2022-10-06T06:27:03.571Z,100507.80
2022-10-06T06:29:29.983Z,100501.46
2022-10-06T06:31:56.519Z,100504.94
2022-10-06T06:34:24.969Z,100506.08
2022-10-06T06:36:54.463Z,100511.88
2022-10-06T06:39:21.031Z,100513.61
2022-10-06T06:41:49.469Z,100517.10
2022-10-06T06:44:36.236Z,100522.88
2022-10-06T06:47:15.607Z,100519.85
2022-10-06T06:49:47.542Z,100520.79
2022-10-06T06:52:15.944Z,100521.94
2022-10-06T06:54:42.871Z,100526.79
2022-10-06T06:57:13.456Z,100534.91
2022-10-06T06:59:40.280Z,100541.29
2022-10-06T07:02:11.221Z,100544.95
2022-10-06T07:04:40.860Z,100547.03
2022-10-06T07:07:10.890Z,100552.09
2022-10-06T07:09:37.780Z,100554.32
2022-10-06T07:12:10.856Z,100555.48
2022-10-06T07:14:59.636Z,100567.14
2022-10-06T07:17:53.245Z,100566.09
2022-10-06T07:20:39.403Z,100568.52
2022-10-06T07:23:24.676Z,100574.64
2022-10-06T07:25:52.801Z,100580.11
2022-10-06T07:28:20.627Z,100582.41
2022-10-06T07:30:47.421Z,100592.08
2022-10-06T07:33:18.532Z,100595.76
2022-10-06T07:35:46.282Z,100600.92
2022-10-06T07:38:14.992Z,100600.23
2022-10-06T07:40:50.643Z,100606.86
2022-10-06T07:43:29.407Z,100612.81
2022-10-06T07:46:18.647Z,100611.04
2022-10-06T07:48:52.825Z,100609.89
2022-10-06T07:51:19.735Z,100624.81
2022-10-06T07:53:50.291Z,100621.87
2022-10-06T07:56:49.034Z,100620.67
2022-10-06T07:59:15.521Z,100623.98
2022-10-06T08:01:43.885Z,100621.57
2022-10-06T08:04:10.518Z,100621.94
2022-10-06T08:06:37.937Z,100617.80
2022-10-06T08:09:05.170Z,100624.47
2022-10-06T08:11:39.065Z,100633.77
2022-10-06T08:14:05.584Z,100627.95
2022-10-06T08:16:32.145Z,100633.17
2022-10-06T08:18:58.828Z,100636.05
2022-10-06T08:21:33.091Z,100638.10
2022-10-06T08:24:00.306Z,100653.25
2022-10-06T08:26:28.622Z,100657.58
2022-10-06T08:28:59.266Z,100659.21
2022-10-06T08:31:25.704Z,100663.09
2022-10-06T08:33:56.733Z,100667.74
2022-10-06T08:36:31.905Z,100675.17
2022-10-06T08:39:00.251Z,100682.24
2022-10-06T08:41:28.481Z,100688.98
2022-10-06T08:44:18.034Z,100695.58
2022-10-06T08:46:54.747Z,100698.60
2022-10-06T08:49:24.864Z,100703.51
2022-10-06T08:52:17.562Z,100712.48
2022-10-06T08:55:13.976Z,100718.77
2022-10-06T08:58:17.948Z,100720.56
2022-10-06T09:00:49.070Z,100719.33
2022-10-06T09:03:22.601Z,100725.10
2022-10-06T09:06:02.826Z,100725.11
2022-10-06T09:08:55.105Z,100727.41
2022-10-06T09:12:06.848Z,100735.13
2022-10-06T09:14:36.935Z,100733.48
2022-10-06T09:17:13.270Z,100734.10
2022-10-06T09:19:45.575Z,100740.23
2022-10-06T09:22:21.555Z,100741.02
2022-10-06T09:24:51.180Z,100746.35
2022-10-06T09:27:33.281Z,100754.17
2022-10-06T09:30:03.905Z,100754.59
2022-10-06T09:32:30.992Z,100759.34
2022-10-06T09:35:03.907Z,100763.00
2022-10-06T09:37:56.358Z,100762.91
2022-10-06T09:40:37.237Z,100767.00
2022-10-06T09:43:16.538Z,100772.37
2022-10-06T09:45:43.353Z,100781.30
2022-10-06T09:48:26.639Z,100778.13
2022-10-06T09:51:08.021Z,100778.08
2022-10-06T09:53:37.657Z,100782.24
2022-10-06T09:56:13.894Z,100785.52
2022-10-06T09:58:55.809Z,100793.83
2022-10-06T10:01:29.317Z,100795.67
2022-10-06T10:04:20.897Z,100799.41
2022-10-06T10:06:48.617Z,100808.51
2022-10-06T10:09:34.718Z,100807.45
2022-10-06T10:12:24.311Z,100815.70
2022-10-06T10:14:58.577Z,100813.21
2022-10-06T10:17:47.661Z,100814.83
2022-10-06T10:20:38.186Z,100821.92
2022-10-06T10:23:26.030Z,100826.58
2022-10-06T10:26:07.875Z,100825.82
2022-10-06T10:28:51.525Z,100838.63
2022-10-06T10:31:38.593Z,100838.85
2022-10-06T10:34:24.906Z,100841.27
2022-10-06T10:37:04.273Z,100847.88
2022-10-06T10:39:47.009Z,100850.44
2022-10-06T10:42:55.059Z,100855.05
2022-10-06T10:45:35.343Z,100860.02
2022-10-06T10:48:12.380Z,100863.56
2022-10-06T10:50:48.207Z,100864.55
2022-10-06T10:53:31.245Z,100861.83
2022-10-06T10:56:00.050Z,100864.42
2022-10-06T10:58:36.637Z,100862.64
2022-10-06T11:01:28.850Z,100865.44
2022-10-06T11:03:57.734Z,100864.35
2022-10-06T11:07:15.141Z,100865.16
2022-10-06T11:10:14.703Z,100874.34
2022-10-06T11:13:03.613Z,100879.19
2022-10-06T11:16:14.168Z,100882.00
2022-10-06T11:18:59.209Z,100885.65
2022-10-06T11:21:57.162Z,100890.14
2022-10-06T11:24:33.759Z,100889.30
2022-10-06T11:27:35.831Z,100893.04
2022-10-06T11:30:25.097Z,100903.50
2022-10-06T11:33:09.449Z,100898.98
2022-10-06T11:35:42.638Z,100900.08
2022-10-06T11:38:15.818Z,100902.58
2022-10-06T11:40:49.363Z,100907.09
2022-10-06T11:43:34.330Z,100911.63
2022-10-06T11:46:18.317Z,100909.42
2022-10-06T11:48:46.091Z,100916.85
2022-10-06T11:51:32.647Z,100918.30
2022-10-06T11:53:59.343Z,100918.50
2022-10-06T11:56:37.420Z,100919.36
2022-10-06T11:59:11.716Z,100927.39
2022-10-06T12:01:43.388Z,100926.42
2022-10-06T12:04:09.939Z,100933.35
2022-10-06T12:06:45.620Z,100933.05
2022-10-06T12:09:38.133Z,100938.81
2022-10-06T12:12:07.568Z,100945.57
2022-10-06T12:17:57.676Z,100946.21
2022-10-06T12:20:37.323Z,100945.96
2022-10-06T12:23:42.889Z,100956.28
2022-10-06T12:26:28.332Z,100963.91
2022-10-06T12:29:19.896Z,100972.30
2022-10-06T12:31:53.660Z,100971.45
2022-10-06T12:34:39.044Z,100970.75
2022-10-06T12:37:33.782Z,100970.75
2022-10-06T12:40:37.766Z,100970.75
2022-10-06T12:43:20.299Z,100970.75
2022-10-06T12:46:15.715Z,100982.91
2022-10-06T12:49:21.646Z,100985.86
2022-10-06T12:51:52.346Z,80788.48
2022-10-06T12:54:27.553Z,-1.00
2022-10-06T12:57:19.519Z,-1.00
2022-10-06T12:59:47.141Z,-1.00
2022-10-06T13:02:19.459Z,-1.00
2022-10-06T13:05:09.479Z,-1.00
2022-10-06T13:07:55.826Z,-1.00
2022-10-06T13:10:23.042Z,-1.00
2022-10-06T13:12:52.023Z,-1.00
2022-10-06T13:15:21.628Z,-1.00
2022-10-06T13:18:14.452Z,-1.00
2022-10-06T13:20:49.201Z,-1.00
2022-10-06T13:23:28.402Z,-1.00
2022-10-06T13:26:00.634Z,-1.00
2022-10-06T13:28:44.006Z,-1.00
2022-10-06T13:31:34.739Z,-1.00
2022-10-06T13:34:04.735Z,-1.00
2022-10-06T13:36:38.088Z,-1.00
2022-10-06T13:39:24.799Z,-1.00
2022-10-06T13:42:02.774Z,-1.00
2022-10-06T13:44:44.469Z,-1.00
2022-10-06T13:47:19.520Z,-1.00
2022-10-06T13:50:02.978Z,-1.00
2022-10-06T13:52:48.001Z,-1.00
2022-10-06T13:55:30.895Z,-1.00
2022-10-06T13:58:06.844Z,-1.00
2022-10-06T14:00:57.059Z,-1.00
2022-10-06T14:03:27.842Z,-1.00
2022-10-06T14:06:10.843Z,-1.00
2022-10-06T14:08:37.952Z,-1.00
2022-10-06T14:11:07.447Z,-1.00
2022-10-06T14:13:51.550Z,-1.00
2022-10-06T14:16:27.849Z,-1.00
2022-10-06T14:18:59.406Z,-1.00
2022-10-06T14:21:35.956Z,-1.00
2022-10-06T14:24:09.340Z,-1.00
2022-10-06T14:26:39.234Z,-1.00
2022-10-06T14:29:05.814Z,-1.00
2022-10-06T14:31:34.204Z,-1.00
2022-10-06T14:34:14.021Z,-1.00
2022-10-06T14:36:52.911Z,-1.00
2022-10-06T14:39:27.960Z,-1.00
2022-10-06T14:41:58.566Z,-1.00
2022-10-06T14:44:25.066Z,-1.00
2022-10-06T14:46:58.681Z,-1.00
2022-10-06T14:49:27.069Z,-1.00
2022-10-06T14:51:55.886Z,-1.00
2022-10-06T14:54:22.490Z,-1.00
2022-10-06T14:56:52.849Z,-1.00
2022-10-06T14:59:20.705Z,-1.00
2022-10-06T15:01:49.224Z,-1.00
2022-10-06T15:04:27.173Z,-1.00
2022-10-06T15:07:13.095Z,-1.00
2022-10-06T15:09:39.691Z,-1.00
2022-10-06T15:12:06.083Z,-1.00
2022-10-06T15:14:34.391Z,-1.00
2022-10-06T15:17:00.825Z,-1.00
2022-10-06T15:19:27.600Z,-1.00
2022-10-06T15:21:54.019Z,-1.00
2022-10-06T15:24:25.139Z,-1.00
2022-10-06T15:27:14.762Z,-1.00
2022-10-06T15:29:41.911Z,-1.00
2022-10-06T15:32:08.976Z,-1.00
2022-10-06T15:34:36.935Z,-1.00
2022-10-06T15:37:04.795Z,-1.00
2022-10-06T15:39:48.653Z,-1.00
2022-10-06T15:42:18.157Z,-1.00
2022-10-06T15:44:44.605Z,-1.00
2022-10-06T15:47:31.167Z,-1.00
2022-10-06T15:49:57.711Z,-1.00
